Time;durP1;ratioP1;P1;durP2;ratioP2;P2;SDS_P1;SDS_P2;PMS_P1;PMS_P2;Temp;Humidity;BMP_temperature;BMP_pressure;BME280_temperature;BME280_humidity;BME280_pressure;Samples;Min_cycle;Max_cycle;Signal;HPM_P1;HPM_P2
2024/01/29 00:00:03;;;;;;;9.20;6.53;;;;;;;5.47;74.36;102353.84;5003315;28;20113;-66
2024/01/29 00:02:30;;;;;;;8.75;6.10;;;;;;;5.43;74.38;102347.75;5012881;28;20038;-66
2024/01/29 00:04:55;;;;;;;9.40;6.88;;;;;;;5.38;74.59;102349.63;5013209;28;20022;-66
2024/01/29 00:07:21;;;;;;;7.80;6.68;;;;;;;5.38;74.56;102354.00;5011924;28;20029;-66
2024/01/29 00:09:47;;;;;;;15.85;6.75;;;;;;;5.35;75.02;102349.66;5011748;28;20084;-66
2024/01/29 00:12:14;;;;;;;10.25;6.65;;;;;;;5.35;75.17;102346.16;5012515;28;20084;-66
2024/01/29 00:14:40;;;;;;;10.15;6.95;;;;;;;5.35;75.24;102354.06;5013134;28;20466;-66
2024/01/29 00:17:05;;;;;;;10.23;6.78;;;;;;;5.32;74.83;102349.69;5012719;28;20091;-66
2024/01/29 00:19:31;;;;;;;9.25;7.13;;;;;;;5.31;75.13;102347.09;5012710;28;20030;-66
2024/01/29 00:21:56;;;;;;;11.07;6.85;;;;;;;5.29;75.46;102344.47;5011610;28;20022;-66
2024/01/29 00:24:22;;;;;;;10.05;7.15;;;;;;;5.31;74.71;102355.88;5011752;28;20036;-66
2024/01/29 00:26:47;;;;;;;7.70;6.30;;;;;;;5.29;75.54;102346.25;5010130;28;20100;-66
2024/01/29 00:29:12;;;;;;;12.32;7.05;;;;;;;5.32;75.10;102346.19;5009780;28;20109;-66
2024/01/29 00:31:38;;;;;;;10.00;6.60;;;;;;;5.30;75.38;102342.75;5010415;28;20455;-65
2024/01/29 00:34:03;;;;;;;10.45;7.80;;;;;;;5.30;74.88;102340.97;5011743;28;20053;-65
2024/01/29 00:36:28;;;;;;;11.55;7.15;;;;;;;5.33;75.79;102340.91;5009498;28;20046;-66
2024/01/29 00:38:54;;;;;;;10.07;7.45;;;;;;;5.34;76.40;102340.00;5011418;28;20033;-65
2024/01/29 00:41:19;;;;;;;10.77;6.55;;;;;;;5.33;75.59;102332.13;5009165;28;20109;-65
2024/01/29 00:43:45;;;;;;;9.63;7.45;;;;;;;5.30;76.38;102332.19;5010179;28;20030;-66
2024/01/29 00:46:10;;;;;;;9.30;6.70;;;;;;;5.27;76.40;102332.25;5009689;28;20055;-65
2024/01/29 00:48:35;;;;;;;12.15;6.68;;;;;;;5.22;75.93;102327.03;5011418;28;20104;-65
2024/01/29 00:51:01;;;;;;;16.92;7.65;;;;;;;5.21;76.44;102336.72;5010558;28;20060;-65
2024/01/29 00:53:27;;;;;;;9.25;7.07;;;;;;;5.20;77.10;102337.59;5010549;28;20431;-66
2024/01/29 00:55:54;;;;;;;10.73;6.80;;;;;;;5.15;76.52;102331.53;5011049;28;20061;-65
2024/01/29 00:58:20;;;;;;;10.82;7.05;;;;;;;5.00;77.21;102316.84;5009295;28;20079;-65
2024/01/29 01:00:47;;;;;;;9.52;6.65;;;;;;;4.99;77.67;102322.13;5010996;28;20025;-65
2024/01/29 01:03:13;;;;;;;9.15;7.03;;;;;;;5.03;77.95;102337.03;5010687;28;20030;-65
2024/01/29 01:05:38;;;;;;;9.18;6.20;;;;;;;4.96;77.44;102330.09;5010869;28;20022;-66
2024/01/29 01:08:06;;;;;;;7.85;6.70;;;;;;;4.99;77.48;102348.50;5009095;28;20410;-65
2024/01/29 01:10:32;;;;;;;11.20;6.72;;;;;;;5.01;77.50;102354.63;5009707;28;20470;-66
2024/01/29 01:12:57;;;;;;;7.63;6.63;;;;;;;4.98;77.69;102363.44;5003448;28;20025;-65
2024/01/29 01:15:22;;;;;;;9.48;6.80;;;;;;;4.93;77.97;102356.50;5008463;28;20026;-65
2024/01/29 01:17:48;;;;;;;9.52;6.90;;;;;;;4.83;78.75;102349.66;4999099;28;20036;-66
2024/01/29 01:20:14;;;;;;;10.98;7.05;;;;;;;4.85;78.48;102364.50;5003883;28;20109;-65
2024/01/29 01:22:39;;;;;;;9.07;7.35;;;;;;;4.75;79.35;102353.25;4999938;28;20030;-65
2024/01/29 01:25:06;;;;;;;8.80;7.07;;;;;;;4.78;79.14;102370.78;4991964;28;20049;-65
2024/01/29 01:27:31;;;;;;;11.18;7.00;;;;;;;4.79;79.13;102367.25;4990574;28;20566;-66
2024/01/29 01:29:57;;;;;;;9.75;7.00;;;;;;;4.76;79.75;102368.19;5003480;28;20131;-66
2024/01/29 01:32:22;;;;;;;12.07;7.72;;;;;;;4.76;79.35;102362.00;4998233;28;20488;-66
2024/01/29 01:34:48;;;;;;;8.90;7.30;;;;;;;4.75;79.39;102360.28;4991719;28;20030;-66
2024/01/29 01:37:13;;;;;;;11.88;7.35;;;;;;;4.74;79.37;102367.31;4995438;28;20485;-66
2024/01/29 01:39:39;;;;;;;8.98;7.35;;;;;;;4.75;79.01;102368.19;4995475;28;20029;-65
2024/01/29 01:42:04;;;;;;;9.10;7.57;;;;;;;4.74;80.37;102364.69;5008620;28;20025;-65
2024/01/29 01:44:30;;;;;;;9.40;7.55;;;;;;;4.67;80.27;102364.78;5007033;28;20022;-66
2024/01/29 01:46:56;;;;;;;8.75;6.95;;;;;;;4.65;80.66;102364.81;5010189;28;20396;-66
2024/01/29 01:49:22;;;;;;;10.05;6.90;;;;;;;4.66;80.41;102368.31;5009666;28;20039;-66
2024/01/29 01:51:49;;;;;;;14.93;7.38;;;;;;;4.59;80.70;102359.63;5009416;28;20033;-65
2024/01/29 01:54:15;;;;;;;9.13;7.20;;;;;;;4.56;81.28;102364.94;5007565;28;20026;-65
2024/01/29 01:56:42;;;;;;;13.05;7.68;;;;;;;4.46;82.31;102356.28;5009026;28;20034;-65
2024/01/29 01:59:11;;;;;;;11.25;6.55;;;;;;;4.54;81.50;102378.13;5009069;28;20029;-66
2024/01/29 02:01:38;;;;;;;9.15;6.70;;;;;;;4.57;81.87;102377.22;5008810;28;20026;-65
2024/01/29 02:04:04;;;;;;;15.02;7.40;;;;;;;4.59;81.74;102372.81;5010378;28;20054;-65
2024/01/29 02:06:29;;;;;;;7.03;6.18;;;;;;;4.55;81.74;102361.41;5010014;28;20061;-66
2024/01/29 02:08:55;;;;;;;10.02;6.88;;;;;;;4.55;81.75;102357.91;5010163;28;20041;-65
2024/01/29 02:11:20;;;;;;;8.07;6.68;;;;;;;4.58;82.29;102363.16;5008814;28;20036;-65
2024/01/29 02:13:46;;;;;;;8.40;6.70;;;;;;;4.56;82.54;102370.22;5010371;28;20026;-66
2024/01/29 02:16:11;;;;;;;11.18;7.75;;;;;;;4.47;82.31;102365.03;5010025;28;20033;-65
2024/01/29 02:18:37;;;;;;;8.82;6.57;;;;;;;4.44;82.94;102365.09;5010942;28;20037;-66
2024/01/29 02:21:03;;;;;;;10.88;6.72;;;;;;;4.41;82.39;102359.88;5009450;28;20041;-66
2024/01/29 02:23:28;;;;;;;10.48;6.40;;;;;;;4.43;83.18;102366.00;5009358;28;20040;-65
2024/01/29 02:25:53;;;;;;;12.32;6.88;;;;;;;4.39;82.57;102370.44;5010027;28;20041;-65
2024/01/29 02:28:23;;;;;;;8.40;6.43;;;;;;;4.40;82.55;102372.16;5009218;28;20116;-66
2024/01/29 02:30:49;;;;;;;11.40;7.05;;;;;;;4.43;83.80;102366.00;5009576;28;20469;-66
2024/01/29 02:33:14;;;;;;;12.20;7.20;;;;;;;4.44;83.52;102363.34;5006682;28;20112;-66
2024/01/29 02:35:40;;;;;;;8.48;6.53;;;;;;;4.45;82.88;102361.59;5008388;28;20018;-65
2024/01/29 02:38:05;;;;;;;11.55;6.90;;;;;;;4.41;83.40;102363.41;4995659;28;20497;-65
2024/01/29 02:40:31;;;;;;;7.57;6.72;;;;;;;4.44;83.58;102362.47;4991367;28;20026;-66
2024/01/29 02:42:56;;;;;;;10.88;7.10;;;;;;;4.38;83.95;102362.53;4995118;28;20030;-66
2024/01/29 02:45:21;;;;;;;10.95;6.72;;;;;;;4.41;83.98;102371.31;4991503;28;20022;-65
2024/01/29 02:47:47;;;;;;;9.20;6.90;;;;;;;4.35;83.22;102367.84;5006333;28;20034;-66
2024/01/29 02:50:12;;;;;;;11.48;6.55;;;;;;;4.33;83.70;102362.63;5002792;28;20037;-66
2024/01/29 02:52:38;;;;;;;9.55;6.70;;;;;;;4.26;83.26;102358.31;5012914;28;20054;-66
2024/01/29 02:55:04;;;;;;;8.65;7.55;;;;;;;4.31;84.08;102367.88;5012182;28;20028;-65
2024/01/29 02:57:29;;;;;;;8.45;6.32;;;;;;;4.15;84.37;102333.84;5012239;28;20417;-65
2024/01/29 02:59:55;;;;;;;8.00;6.07;;;;;;;4.37;84.02;102373.97;5012524;28;20024;-65
2024/01/29 03:02:22;;;;;;;7.78;5.90;;;;;;;4.33;84.17;102358.22;5011082;28;20028;-66
2024/01/29 03:04:48;;;;;;;9.60;6.45;;;;;;;4.34;85.14;102364.34;5013577;28;20034;-66
2024/01/29 03:07:13;;;;;;;7.90;6.93;;;;;;;4.31;84.60;102362.63;5012622;28;20029;-65
2024/01/29 03:09:38;;;;;;;8.65;6.65;;;;;;;4.25;84.71;102361.84;5012185;28;20501;-66
2024/01/29 03:12:04;;;;;;;10.68;6.82;;;;;;;4.16;84.64;102360.19;5012242;28;20037;-66
2024/01/29 03:14:29;;;;;;;8.13;6.15;;;;;;;4.11;84.99;102367.25;5012504;28;20240;-65
2024/01/29 03:16:55;;;;;;;10.75;7.32;;;;;;;4.07;85.41;102362.94;5012749;28;20034;-66
2024/01/29 03:19:20;;;;;;;9.00;6.50;;;;;;;4.04;86.18;102368.22;5011466;28;20109;-66
2024/01/29 03:21:46;;;;;;;9.25;6.75;;;;;;;4.04;85.95;102371.72;5011432;28;20455;-65
2024/01/29 03:24:15;;;;;;;8.65;6.82;;;;;;;4.05;86.37;102367.31;5011564;28;20053;-65
2024/01/29 03:26:40;;;;;;;8.18;6.15;;;;;;;4.03;86.47;102354.19;5011262;28;20026;-65
2024/01/29 03:29:06;;;;;;;8.20;6.55;;;;;;;4.08;86.17;102357.63;5012560;28;20613;-65
2024/01/29 03:31:31;;;;;;;6.95;6.25;;;;;;;4.09;86.49;102355.88;5012026;28;20068;-66
2024/01/29 03:33:56;;;;;;;6.90;6.00;;;;;;;4.13;86.24;102360.22;5011318;28;20061;-65
2024/01/29 03:36:22;;;;;;;8.55;6.30;;;;;;;4.09;86.41;102359.38;5011915;28;20056;-65
2024/01/29 03:38:47;;;;;;;8.90;6.63;;;;;;;4.13;86.15;102364.63;5010376;28;20026;-66
2024/01/29 03:41:13;;;;;;;14.77;7.47;;;;;;;3.88;86.43;102330.66;5011723;28;20044;-66
2024/01/29 03:43:38;;;;;;;10.88;6.25;;;;;;;4.06;86.61;102369.97;5011105;28;20104;-65
2024/01/29 03:46:03;;;;;;;12.70;7.50;;;;;;;4.03;86.53;102363.84;5010886;28;20401;-65
2024/01/29 03:48:29;;;;;;;8.40;6.20;;;;;;;4.04;87.07;102376.13;5011103;28;20478;-65
2024/01/29 03:50:55;;;;;;;9.57;6.38;;;;;;;3.99;87.50;102373.53;5010231;28;20040;-66
2024/01/29 03:53:22;;;;;;;9.45;6.50;;;;;;;3.92;87.26;102369.25;5008040;28;20033;-65
2024/01/29 03:55:48;;;;;;;9.70;6.53;;;;;;;3.92;87.44;102379.75;5005668;28;20104;-65
2024/01/29 03:58:14;;;;;;;7.10;5.97;;;;;;;3.91;87.88;102382.41;4995332;28;20030;-66
2024/01/29 04:00:39;;;;;;;9.13;6.68;;;;;;;3.85;88.58;102384.22;5009187;28;20010;-65
2024/01/29 04:03:06;;;;;;;10.73;6.85;;;;;;;3.86;87.85;102385.97;5010345;28;20022;-66
2024/01/29 04:05:31;;;;;;;16.50;7.13;;;;;;;3.80;88.05;102369.38;5010999;28;20084;-65
2024/01/29 04:07:57;;;;;;;10.32;7.18;;;;;;;3.82;88.41;102384.25;5010882;28;20034;-65
2024/01/29 04:10:22;;;;;;;9.52;7.07;;;;;;;3.80;88.73;102374.63;5011157;28;20125;-66
2024/01/29 04:12:52;;;;;;;10.52;7.43;;;;;;;3.76;89.12;102378.16;4993860;28;20026;-65
2024/01/29 04:15:18;;;;;;;9.68;7.05;;;;;;;3.72;89.35;102381.72;4991679;28;20022;-65
2024/01/29 04:17:43;;;;;;;7.95;6.55;;;;;;;3.75;89.66;102382.56;4994316;28;20033;-66
2024/01/29 04:20:09;;;;;;;7.18;6.43;;;;;;;3.78;89.17;102377.25;5004261;28;20033;-65
2024/01/29 04:22:34;;;;;;;8.00;6.20;;;;;;;3.78;88.66;102382.53;5009778;28;20076;-66
2024/01/29 04:25:02;;;;;;;8.55;6.85;;;;;;;3.79;89.14;102383.41;5004418;28;20096;-66
2024/01/29 04:27:28;;;;;;;9.43;6.57;;;;;;;3.74;89.25;102369.44;4999199;28;20021;-65
2024/01/29 04:29:55;;;;;;;9.15;6.65;;;;;;;3.80;89.80;102372.00;4992728;28;20022;-66
2024/01/29 04:32:21;;;;;;;7.70;6.53;;;;;;;3.86;89.44;102385.09;4991500;28;20489;-65
2024/01/29 04:34:47;;;;;;;9.60;6.57;;;;;;;3.77;89.33;102370.28;4993082;28;20077;-65
2024/01/29 04:37:13;;;;;;;9.90;6.20;;;;;;;3.90;89.54;102388.56;4991199;28;20101;-66
2024/01/29 04:39:38;;;;;;;9.05;7.15;;;;;;;3.89;89.94;102387.69;4999701;28;20026;-66
2024/01/29 04:42:04;;;;;;;10.57;6.97;;;;;;;3.90;89.73;102388.56;4995106;28;20026;-65
2024/01/29 04:44:30;;;;;;;8.77;6.72;;;;;;;3.90;89.94;102388.56;4995671;28;20471;-65
2024/01/29 04:46:55;;;;;;;7.00;6.30;;;;;;;3.91;90.02;102396.44;4993020;28;20464;-65
2024/01/29 04:49:21;;;;;;;11.68;6.70;;;;;;;3.87;89.31;102384.19;4993535;28;20481;-65
2024/01/29 04:51:46;;;;;;;7.10;6.28;;;;;;;3.85;89.71;102385.97;5005545;28;20030;-66
2024/01/29 04:54:11;;;;;;;7.85;6.22;;;;;;;3.83;90.27;102396.53;5008681;28;20053;-66
2024/01/29 04:56:37;;;;;;;7.88;6.38;;;;;;;3.84;89.75;102395.63;4994926;28;20500;-66
2024/01/29 04:59:04;;;;;;;9.95;6.40;;;;;;;3.80;89.53;102393.06;5000527;28;20018;-65
2024/01/29 05:01:30;;;;;;;8.35;5.60;;;;;;;3.74;89.31;102391.34;5009792;28;20034;-66
2024/01/29 05:03:55;;;;;;;7.75;5.75;;;;;;;3.72;90.33;102392.25;5008180;28;20405;-65
2024/01/29 05:06:21;;;;;;;7.65;6.50;;;;;;;3.68;90.27;102395.78;5010043;28;20113;-65
2024/01/29 05:08:49;;;;;;;10.48;6.85;;;;;;;3.67;90.74;102394.91;5009267;28;20022;-66
2024/01/29 05:11:14;;;;;;;6.97;6.28;;;;;;;3.59;90.64;102381.84;5008208;28;20033;-66
2024/01/29 05:13:40;;;;;;;12.40;6.68;;;;;;;3.60;90.88;102391.47;5010989;28;20160;-65
2024/01/29 05:16:06;;;;;;;7.90;5.82;;;;;;;3.59;91.54;102387.13;5010961;28;20079;-65
2024/01/29 05:18:32;;;;;;;10.15;6.88;;;;;;;3.55;91.02;102388.00;5010804;28;20029;-65
2024/01/29 05:20:58;;;;;;;8.48;6.53;;;;;;;3.54;91.07;102383.63;5010293;28;20038;-65
2024/01/29 05:23:23;;;;;;;7.68;6.85;;;;;;;3.55;91.29;102397.66;5009888;28;20180;-65
2024/01/29 05:25:48;;;;;;;7.88;6.43;;;;;;;3.56;91.71;102391.50;5009478;28;20026;-65
2024/01/29 05:28:14;;;;;;;8.25;5.93;;;;;;;3.56;92.33;102395.03;5008985;28;20033;-65
2024/01/29 05:30:39;;;;;;;6.85;6.13;;;;;;;3.55;91.79;102388.00;5011073;28;20044;-65
2024/01/29 05:33:04;;;;;;;10.52;6.40;;;;;;;3.54;92.44;102382.78;5009368;28;20157;-65
2024/01/29 05:35:30;;;;;;;7.88;6.30;;;;;;;3.53;92.74;102391.53;5012104;28;20037;-66
2024/01/29 05:37:55;;;;;;;8.10;6.30;;;;;;;3.44;91.90;102383.72;4991684;28;20101;-66
2024/01/29 05:40:20;;;;;;;10.63;6.88;;;;;;;3.51;92.18;102395.97;4993186;28;20027;-66
2024/01/29 05:42:52;;;;;;;8.82;6.93;;;;;;;3.45;92.41;102386.34;5001216;28;20105;-65
2024/01/29 05:45:17;;;;;;;10.25;6.63;;;;;;;3.51;92.43;102388.06;5008418;28;20029;-66
2024/01/29 05:47:43;;;;;;;10.07;6.60;;;;;;;3.47;92.67;102379.34;5010718;28;20022;-66
2024/01/29 05:50:08;;;;;;;11.13;6.47;;;;;;;3.53;92.96;102391.53;5010069;28;20025;-66
2024/01/29 05:52:35;;;;;;;10.55;6.63;;;;;;;3.48;93.47;102394.22;5008510;28;20029;-65
2024/01/29 05:55:01;;;;;;;8.77;6.78;;;;;;;3.52;92.71;102401.19;5009040;28;20033;-65
2024/01/29 05:57:27;;;;;;;9.52;6.57;;;;;;;3.53;93.43;102399.41;5010100;28;20396;-65
2024/01/29 05:59:53;;;;;;;9.48;6.72;;;;;;;3.56;93.57;102404.66;5009227;28;20030;-65
2024/01/29 06:02:18;;;;;;;7.85;6.22;;;;;;;3.57;93.55;102406.41;5008122;28;20033;-65
2024/01/29 06:04:44;;;;;;;6.93;6.05;;;;;;;3.52;93.08;102403.81;5007196;28;20025;-66
2024/01/29 06:07:09;;;;;;;8.07;6.20;;;;;;;3.58;94.15;102413.41;5009389;28;20397;-66
2024/01/29 06:09:34;;;;;;;9.60;6.50;;;;;;;3.55;93.34;102411.69;5008394;28;20032;-66
2024/01/29 06:12:00;;;;;;;8.43;6.03;;;;;;;3.51;93.57;102401.22;5009777;28;20037;-65
2024/01/29 06:14:26;;;;;;;10.98;6.45;;;;;;;3.50;93.96;102407.34;5009319;28;20017;-65
2024/01/29 06:16:55;;;;;;;8.93;6.40;;;;;;;3.41;93.87;102384.63;5008812;28;20389;-65
2024/01/29 06:19:20;;;;;;;7.43;6.30;;;;;;;3.58;93.65;102411.66;5008834;28;20022;-65
2024/01/29 06:21:45;;;;;;;6.97;6.28;;;;;;;3.58;94.36;102403.75;5009583;28;20462;-65
2024/01/29 06:24:11;;;;;;;8.18;6.30;;;;;;;3.66;94.30;102403.69;5012426;28;20032;-65
2024/01/29 06:26:39;;;;;;;8.18;6.10;;;;;;;3.73;94.82;102415.03;5012683;28;20026;-66
2024/01/29 06:29:05;;;;;;;7.90;6.03;;;;;;;3.79;94.57;102421.09;5012407;28;20095;-65
2024/01/29 06:31:30;;;;;;;9.80;6.25;;;;;;;3.84;94.07;102419.31;5014165;28;20034;-65
2024/01/29 06:33:56;;;;;;;9.50;6.22;;;;;;;3.86;94.19;102427.19;4994344;28;20096;-65
2024/01/29 06:36:22;;;;;;;10.77;6.40;;;;;;;3.87;93.77;102418.41;4995693;28;20022;-65
2024/01/29 06:38:48;;;;;;;6.93;6.22;;;;;;;3.88;94.13;102433.31;4996246;28;20092;-65
2024/01/29 06:41:20;;;;;;;8.15;6.30;;;;;;;3.89;93.83;102434.19;4996193;28;20497;-65
2024/01/29 06:43:48;;;;;;;8.43;6.32;;;;;;;3.82;93.54;102425.47;5015188;28;20025;-66
2024/01/29 06:46:14;;;;;;;9.88;6.63;;;;;;;3.56;94.52;102381.88;5013250;28;20022;-66
2024/01/29 06:48:39;;;;;;;10.27;6.18;;;;;;;3.78;93.54;102413.25;5013171;28;20556;-66
2024/01/29 06:51:05;;;;;;;9.25;6.50;;;;;;;3.91;94.00;102435.03;5013340;28;20022;-66
2024/01/29 06:53:33;;;;;;;7.93;6.10;;;;;;;3.93;93.14;102435.91;5011418;28;20036;-66
2024/01/29 06:56:02;;;;;;;10.30;6.40;;;;;;;3.92;94.13;102434.16;5011501;28;20033;-65
2024/01/29 06:58:28;;;;;;;8.50;6.22;;;;;;;3.91;93.30;102429.78;5012831;28;20049;-66
2024/01/29 07:00:54;;;;;;;10.10;6.32;;;;;;;3.86;93.94;102429.84;5013033;28;20469;-66
2024/01/29 07:03:20;;;;;;;13.75;6.93;;;;;;;3.90;93.67;102436.81;5012556;28;20397;-66
2024/01/29 07:05:48;;;;;;;11.40;6.13;;;;;;;3.92;93.40;102442.94;5013032;28;20109;-66
2024/01/29 07:08:16;;;;;;;9.35;6.30;;;;;;;3.90;93.47;102452.59;5009791;28;20056;-66
2024/01/29 07:10:42;;;;;;;8.63;6.68;;;;;;;3.86;93.64;102451.75;5012878;28;20069;-66
2024/01/29 07:13:08;;;;;;;8.38;7.05;;;;;;;3.86;93.97;102446.50;5012278;28;20033;-66
2024/01/29 07:15:33;;;;;;;8.10;6.63;;;;;;;3.83;94.07;102446.53;5005282;28;20026;-66
2024/01/29 07:18:01;;;;;;;8.38;6.53;;;;;;;3.89;94.94;102464.03;5004541;28;20096;-66
2024/01/29 07:20:29;;;;;;;7.97;6.30;;;;;;;3.91;94.88;102464.84;4999021;28;20077;-66
2024/01/29 07:22:55;;;;;;;6.60;5.90;;;;;;;3.91;94.08;102471.88;5002443;28;20040;-66
2024/01/29 07:25:21;;;;;;;7.65;6.20;;;;;;;3.87;94.43;102465.78;5002445;28;20033;-66
2024/01/29 07:27:46;;;;;;;7.93;6.47;;;;;;;3.87;94.08;102476.31;5010227;28;20105;-66
2024/01/29 07:30:12;;;;;;;8.40;6.78;;;;;;;3.79;94.49;102467.59;5004502;28;20018;-66
2024/01/29 07:32:38;;;;;;;10.30;6.15;;;;;;;3.80;94.42;102470.25;5009037;28;20037;-66
2024/01/29 07:35:04;;;;;;;10.93;7.10;;;;;;;3.86;94.39;102479.84;4997159;28;20022;-66
2024/01/29 07:37:30;;;;;;;10.35;6.70;;;;;;;3.86;94.42;102483.34;5009844;28;20103;-66
2024/01/29 07:39:56;;;;;;;9.43;6.55;;;;;;;3.85;94.54;102492.13;5000025;28;20027;-66
2024/01/29 07:42:22;;;;;;;10.15;6.50;;;;;;;3.84;95.20;102490.38;5007741;28;20489;-66
2024/01/29 07:44:48;;;;;;;9.90;7.10;;;;;;;3.85;95.19;102489.50;5012525;28;20024;-66
2024/01/29 07:47:14;;;;;;;9.05;6.63;;;;;;;3.89;95.31;102476.31;5012464;28;20460;-66
2024/01/29 07:49:39;;;;;;;8.68;6.15;;;;;;;3.93;94.86;102491.19;5012514;28;20473;-66
2024/01/29 07:52:05;;;;;;;9.73;6.82;;;;;;;3.96;95.84;102493.78;5011324;28;20026;-66
2024/01/29 07:54:30;;;;;;;9.35;6.88;;;;;;;4.01;95.73;102486.72;5011453;28;20456;-66
2024/01/29 07:56:56;;;;;;;8.75;6.88;;;;;;;4.05;95.15;102484.03;5012034;28;20454;-66
2024/01/29 07:59:21;;;;;;;10.50;7.55;;;;;;;4.04;95.25;102481.44;5011420;28;20494;-66
2024/01/29 08:01:46;;;;;;;14.63;7.60;;;;;;;4.13;94.96;102493.63;5009625;28;20033;-66
2024/01/29 08:04:12;;;;;;;8.50;6.88;;;;;;;4.17;95.80;102488.31;5008484;28;20030;-66
2024/01/29 08:06:37;;;;;;;11.27;7.57;;;;;;;4.23;94.97;102493.50;5009061;28;20026;-66
2024/01/29 08:09:06;;;;;;;8.60;6.75;;;;;;;4.27;94.57;102482.06;5008456;28;20040;-66
2024/01/29 08:11:32;;;;;;;11.13;7.20;;;;;;;4.38;94.45;102494.25;5010804;28;20026;-66
2024/01/29 08:13:58;;;;;;;9.30;6.70;;;;;;;4.44;94.59;102492.44;5007761;28;20022;-66
2024/01/29 08:16:23;;;;;;;10.82;6.82;;;;;;;4.46;94.45;102482.72;5011054;28;20469;-66
2024/01/29 08:18:49;;;;;;;7.80;6.43;;;;;;;4.56;94.62;102496.69;5012434;28;20024;-66
2024/01/29 08:21:14;;;;;;;11.07;6.80;;;;;;;4.62;93.76;102493.09;5011463;28;20033;-66
2024/01/29 08:23:40;;;;;;;9.18;7.15;;;;;;;4.72;93.92;102505.28;5011085;28;20018;-66
2024/01/29 08:26:06;;;;;;;7.82;6.38;;;;;;;4.81;92.83;102502.53;5012419;28;20057;-66
2024/01/29 08:28:32;;;;;;;10.00;7.47;;;;;;;4.84;92.54;102505.13;5012502;28;20026;-66
2024/01/29 08:30:59;;;;;;;8.82;7.00;;;;;;;4.87;93.36;102501.59;5010317;28;20030;-66
2024/01/29 08:33:27;;;;;;;10.63;7.18;;;;;;;4.92;92.84;102500.63;5001109;28;20030;-66
2024/01/29 08:35:53;;;;;;;9.07;7.82;;;;;;;4.89;92.74;102490.13;5011031;28;20022;-66
2024/01/29 08:38:18;;;;;;;11.43;7.15;;;;;;;5.01;92.86;102503.16;5011254;28;20049;-66
2024/01/29 08:40:44;;;;;;;10.88;6.65;;;;;;;5.05;92.29;102498.69;5010984;28;20489;-66
2024/01/29 08:43:09;;;;;;;10.23;6.93;;;;;;;5.10;92.52;102510.06;5010323;28;20457;-66
2024/01/29 08:45:35;;;;;;;7.95;6.30;;;;;;;5.13;91.98;102503.88;5011450;28;20552;-66
2024/01/29 08:48:03;;;;;;;12.02;7.10;;;;;;;5.19;91.62;102503.78;5009931;28;20116;-65
2024/01/29 08:50:30;;;;;;;9.63;6.90;;;;;;;5.22;91.83;102501.97;5012424;28;20075;-65
2024/01/29 08:52:56;;;;;;;10.52;7.75;;;;;;;5.22;91.77;102498.47;5005355;28;20033;-66
2024/01/29 08:55:22;;;;;;;8.70;6.63;;;;;;;5.27;91.47;102501.06;5007375;28;20476;-66
2024/01/29 08:57:47;;;;;;;14.45;6.90;;;;;;;5.29;92.05;102505.38;4999448;28;20152;-66
2024/01/29 09:00:14;;;;;;;8.18;6.55;;;;;;;5.25;91.33;102498.44;5010380;28;20478;-66
2024/01/29 09:02:39;;;;;;;10.23;7.60;;;;;;;5.31;91.47;102500.09;5009682;28;20064;-66
2024/01/29 09:05:05;;;;;;;10.00;6.57;;;;;;;5.33;91.43;102501.84;5009778;28;20068;-66
2024/01/29 09:07:30;;;;;;;9.32;7.20;;;;;;;5.37;91.76;102503.53;5010508;28;20033;-66
2024/01/29 09:09:56;;;;;;;8.85;7.32;;;;;;;5.41;91.87;102502.59;5009745;28;20586;-66
2024/01/29 09:12:21;;;;;;;9.60;7.00;;;;;;;5.45;91.44;102498.16;5007366;28;20026;-66
2024/01/29 09:14:48;;;;;;;12.25;6.95;;;;;;;5.46;91.85;102499.88;5010876;28;20079;-66
2024/01/29 09:17:16;;;;;;;12.18;7.25;;;;;;;5.50;91.63;102491.03;5010024;28;20103;-66
2024/01/29 09:19:45;;;;;;;10.82;6.65;;;;;;;5.54;91.42;102495.34;5023065;28;20026;-66
2024/01/29 09:22:11;;;;;;;12.50;7.55;;;;;;;5.53;91.49;102484.81;5010393;28;20548;-67
2024/01/29 09:24:36;;;;;;;11.00;7.28;;;;;;;5.56;91.58;102487.41;5009429;28;20056;-66
2024/01/29 09:27:02;;;;;;;8.68;7.05;;;;;;;5.57;91.14;102486.53;5009712;28;20025;-66
2024/01/29 09:29:27;;;;;;;10.10;6.43;;;;;;;5.64;91.22;102496.06;5011208;28;20022;-66
2024/01/29 09:31:53;;;;;;;11.68;7.40;;;;;;;5.68;90.71;102503.06;5011096;28;20443;-66
2024/01/29 09:34:20;;;;;;;9.02;7.13;;;;;;;5.73;90.82;102497.69;5007714;28;20033;-66
2024/01/29 09:36:46;;;;;;;11.90;6.72;;;;;;;5.77;90.79;102502.91;5006174;28;20041;-66
2024/01/29 09:39:11;;;;;;;10.65;7.20;;;;;;;5.86;90.78;102509.81;5009312;28;20485;-67
2024/01/29 09:41:38;;;;;;;11.00;7.20;;;;;;;5.95;90.29;102514.09;5006075;28;20026;-66
2024/01/29 09:44:06;;;;;;;7.60;6.82;;;;;;;5.98;90.32;102500.84;5002785;28;20168;-66
2024/01/29 09:46:36;;;;;;;10.77;6.53;;;;;;;6.14;90.21;102511.09;5009483;28;20432;-66
2024/01/29 09:49:02;;;;;;;9.07;6.95;;;;;;;6.27;90.56;102516.19;5010485;28;20029;-66
2024/01/29 09:51:28;;;;;;;10.93;6.82;;;;;;;6.28;90.73;102495.00;5008760;28;20433;-66
2024/01/29 09:53:55;;;;;;;9.00;7.47;;;;;;;6.52;89.72;102511.28;5002504;28;20014;-66
2024/01/29 09:56:22;;;;;;;9.57;6.97;;;;;;;6.65;89.78;102518.09;5009865;28;20026;-66
2024/01/29 09:58:48;;;;;;;10.45;7.22;;;;;;;6.80;88.76;102522.22;5017129;28;20030;-66
2024/01/29 10:01:18;;;;;;;9.45;6.38;;;;;;;6.92;88.71;102529.88;5016854;28;20014;-66
2024/01/29 10:03:43;;;;;;;;;;;;;;;7.03;88.40;102529.66;5017202;28;20434;-66
2024/01/29 10:06:11;;;;;;;14.23;6.65;;;;;;;7.10;87.71;102530.41;5015322;28;19952;-66
2024/01/29 10:08:37;;;;;;;9.48;6.03;;;;;;;7.20;86.73;102534.56;5013583;28;20030;-65
2024/01/29 10:11:03;;;;;;;6.72;5.88;;;;;;;7.30;86.84;102532.63;5016507;28;20143;-66
2024/01/29 10:13:29;;;;;;;11.75;5.93;;;;;;;7.40;86.12;102537.66;5015656;28;20065;-65
2024/01/29 10:15:56;;;;;;;12.90;7.03;;;;;;;7.52;86.00;102533.84;5016346;28;20152;-65
2024/01/29 10:18:21;;;;;;;12.52;7.28;;;;;;;7.70;85.97;102543.16;5017232;28;20480;-67
2024/01/29 10:20:47;;;;;;;10.48;7.68;;;;;;;7.89;85.37;102547.09;5013767;28;20014;-66
2024/01/29 10:23:12;;;;;;;11.73;7.38;;;;;;;8.12;84.88;102541.25;5014621;28;20026;-67
2024/01/29 10:25:43;;;;;;;8.40;6.72;;;;;;;8.34;82.87;102538.88;5017072;28;20030;-67
2024/01/29 10:28:10;;;;;;;10.60;6.40;;;;;;;8.65;81.74;102548.72;5016063;28;20487;-67
2024/01/29 10:30:36;;;;;;;12.10;6.15;;;;;;;8.92;80.02;102546.19;5015617;28;20038;-67
2024/01/29 10:33:03;;;;;;;10.48;7.32;;;;;;;9.03;79.88;102547.63;5015066;28;20026;-67
2024/01/29 10:35:29;;;;;;;8.15;7.07;;;;;;;9.31;79.17;102544.13;5017157;28;20026;-66
2024/01/29 10:38:00;;;;;;;10.27;7.15;;;;;;;9.65;77.58;102548.41;5015996;28;20501;-66
2024/01/29 10:40:27;;;;;;;11.20;6.78;;;;;;;9.81;76.76;102532.84;5014349;28;20041;-66
2024/01/29 10:42:54;;;;;;;11.15;6.82;;;;;;;10.03;75.06;102549.81;5008834;28;20036;-67
2024/01/29 10:45:20;;;;;;;10.05;6.93;;;;;;;10.20;74.71;102541.25;5014477;28;20449;-67
2024/01/29 10:47:52;;;;;;;8.55;6.00;;;;;;;10.51;74.06;102550.88;5014582;28;20026;-67
2024/01/29 10:50:19;;;;;;;10.90;9.93;;;;;;;10.18;72.67;102545.78;5013675;28;20022;-67
2024/01/29 10:52:49;;;;;;;10.82;9.40;;;;;;;10.42;73.00;102544.09;5012342;28;20029;-67
2024/01/29 10:55:16;;;;;;;11.73;6.47;;;;;;;10.97;71.28;102544.75;5011404;28;20049;-68
2024/01/29 10:57:48;;;;;;;11.45;7.20;;;;;;;11.22;69.92;102546.47;5009006;28;20026;-68
2024/01/29 11:00:17;;;;;;;10.48;9.25;;;;;;;11.00;70.11;102544.63;5014301;28;20101;-68
2024/01/29 11:02:46;;;;;;;11.40;6.88;;;;;;;11.45;69.42;102548.25;5015104;28;20041;-68
2024/01/29 11:05:13;;;;;;;10.25;9.23;;;;;;;11.31;69.23;102549.63;5015597;28;20022;-67
2024/01/29 11:07:41;;;;;;;10.10;8.52;;;;;;;11.49;69.05;102544.53;5015614;28;20029;-67
2024/01/29 11:10:21;;;;;;;11.00;8.57;;;;;;;12.05;67.93;102541.38;5011453;28;20022;-67
2024/01/29 11:12:48;;;;;;;10.77;9.00;;;;;;;12.01;67.61;102543.31;5003366;28;20386;-68
2024/01/29 11:15:14;;;;;;;11.45;8.68;;;;;;;12.27;67.53;102541.34;5005163;28;20019;-67
2024/01/29 11:17:41;;;;;;;10.05;8.38;;;;;;;12.38;65.22;102538.19;5012079;28;20041;-67
2024/01/29 11:20:12;;;;;;;10.90;8.90;;;;;;;12.44;66.32;102545.91;5011192;28;20025;-67
2024/01/29 11:22:47;;;;;;;10.15;8.13;;;;;;;12.68;64.99;102544.00;5011381;28;20030;-67